createdAt,value
2022-11-30T00:00:32.352Z,16.49
2022-11-30T00:01:35.723Z,19.17
2022-11-30T00:02:39.154Z,20.61
2022-11-30T00:03:42.159Z,22.43
2022-11-30T00:04:45.538Z,18.95
2022-11-30T00:05:48.624Z,17.09
2022-11-30T00:06:51.611Z,17.62
2022-11-30T00:07:54.868Z,18.15
2022-11-30T00:08:57.561Z,16.83
2022-11-30T00:10:00.237Z,19.68
2022-11-30T00:11:03.125Z,19.01
2022-11-30T00:12:05.666Z,20.89
2022-11-30T00:13:08.754Z,20.33
2022-11-30T00:14:11.630Z,19.27
2022-11-30T00:15:14.393Z,17.45
2022-11-30T00:16:17.254Z,21.00
2022-11-30T00:17:19.948Z,22.00
2022-11-30T00:18:23.342Z,19.02
2022-11-30T00:19:25.894Z,17.16
2022-11-30T00:20:28.682Z,16.32
2022-11-30T00:21:31.651Z,23.17
2022-11-30T00:22:34.636Z,18.85
2022-11-30T00:23:38.068Z,21.04
2022-11-30T00:24:40.878Z,18.89
2022-11-30T00:25:43.886Z,21.36
2022-11-30T00:26:46.733Z,20.00
2022-11-30T00:27:49.401Z,22.81
2022-11-30T00:28:52.901Z,24.90
2022-11-30T00:29:55.996Z,26.09
2022-11-30T00:30:59.023Z,26.36
2022-11-30T00:32:02.132Z,20.34
2022-11-30T00:33:04.816Z,18.48
2022-11-30T00:34:07.676Z,16.27
2022-11-30T00:35:10.448Z,21.92
2022-11-30T00:36:13.124Z,19.61
2022-11-30T00:37:15.934Z,17.23
2022-11-30T00:38:18.737Z,14.02
2022-11-30T00:39:21.847Z,18.34
2022-11-30T00:40:24.832Z,18.51
2022-11-30T00:41:27.590Z,20.12
2022-11-30T00:42:30.481Z,20.34
2022-11-30T00:43:33.241Z,20.62
2022-11-30T00:44:36.326Z,23.44
2022-11-30T00:45:39.091Z,20.28
2022-11-30T00:46:42.277Z,24.68
2022-11-30T00:47:45.249Z,20.08
2022-11-30T00:48:48.232Z,22.64
2022-11-30T00:49:51.205Z,19.20
2022-11-30T00:50:54.183Z,18.93
2022-11-30T00:51:57.260Z,22.58
2022-11-30T00:52:59.925Z,22.97
2022-11-30T00:54:02.700Z,22.40
2022-11-30T00:55:05.889Z,18.48
2022-11-30T00:56:08.452Z,21.36
2022-11-30T00:57:11.025Z,19.92
2022-11-30T00:58:13.895Z,23.53
2022-11-30T00:59:16.775Z,25.85
2022-11-30T01:00:20.078Z,21.43
2022-11-30T01:01:22.693Z,19.69
2022-11-30T01:02:25.533Z,21.77
2022-11-30T01:03:28.572Z,20.73
2022-11-30T01:04:31.453Z,22.15
2022-11-30T01:05:34.628Z,20.94
2022-11-30T01:06:37.195Z,20.45
2022-11-30T01:07:40.021Z,20.55
2022-11-30T01:08:42.653Z,19.19
2022-11-30T01:09:45.420Z,24.25
2022-11-30T01:10:48.490Z,21.49
2022-11-30T01:11:51.258Z,23.65
2022-11-30T01:12:54.240Z,18.52
2022-11-30T01:13:57.321Z,25.39
2022-11-30T01:14:59.890Z,23.07
2022-11-30T01:16:02.816Z,20.04
2022-11-30T01:17:05.432Z,21.37
2022-11-30T01:18:08.203Z,19.91
2022-11-30T01:19:11.081Z,20.65
2022-11-30T01:20:14.072Z,21.73
2022-11-30T01:21:17.136Z,21.91
2022-11-30T01:22:20.011Z,22.21
2022-11-30T01:23:23.192Z,25.59
2022-11-30T01:24:26.170Z,23.17
2022-11-30T01:25:29.256Z,21.58
2022-11-30T01:26:33.105Z,18.19
2022-11-30T01:27:36.335Z,21.54
2022-11-30T01:28:39.312Z,23.74
2022-11-30T01:29:42.384Z,21.09
2022-11-30T01:30:45.430Z,22.19
2022-11-30T01:31:48.852Z,21.22
2022-11-30T01:32:51.837Z,20.98
2022-11-30T01:33:55.020Z,20.40
2022-11-30T01:34:57.887Z,24.93
2022-11-30T01:36:00.906Z,25.51
2022-11-30T01:37:03.845Z,21.12
2022-11-30T01:38:06.611Z,22.23
2022-11-30T01:39:09.689Z,20.46
2022-11-30T01:40:12.595Z,18.48
2022-11-30T01:41:15.682Z,17.28
2022-11-30T01:42:19.757Z,18.55
2022-11-30T01:43:22.827Z,19.71
2022-11-30T01:44:25.711Z,18.86
2022-11-30T01:45:28.783Z,22.98
2022-11-30T01:46:31.716Z,20.76
2022-11-30T01:47:35.385Z,17.48
2022-11-30T01:48:38.556Z,19.75
2022-11-30T01:49:41.731Z,20.48
2022-11-30T01:50:45.003Z,18.42
2022-11-30T01:51:47.976Z,20.98
2022-11-30T01:52:51.675Z,22.53
2022-11-30T01:53:54.856Z,20.87
2022-11-30T01:54:57.833Z,20.38
2022-11-30T01:56:01.225Z,19.42
2022-11-30T01:57:04.324Z,21.06
2022-11-30T01:58:08.089Z,20.63
2022-11-30T01:59:11.074Z,18.88
2022-11-30T02:00:14.209Z,21.25
2022-11-30T02:01:17.346Z,22.39
2022-11-30T02:02:20.167Z,20.10
2022-11-30T02:03:23.288Z,19.87
2022-11-30T02:04:26.267Z,18.65
2022-11-30T02:05:28.931Z,17.66
2022-11-30T02:06:31.803Z,14.82
2022-11-30T02:07:34.965Z,20.27
2022-11-30T02:08:38.031Z,19.11
2022-11-30T02:09:40.939Z,18.26
2022-11-30T02:10:44.029Z,18.80
2022-11-30T02:11:47.132Z,17.06
2022-11-30T02:12:50.174Z,17.52
2022-11-30T02:13:53.357Z,14.68
2022-11-30T02:14:56.330Z,16.08
2022-11-30T02:15:59.573Z,18.52
2022-11-30T02:17:02.402Z,20.06
2022-11-30T02:18:05.171Z,20.25
2022-11-30T02:19:08.592Z,19.75
2022-11-30T02:20:11.635Z,19.16
2022-11-30T02:21:15.047Z,22.07
2022-11-30T02:22:18.100Z,16.95
2022-11-30T02:23:21.289Z,19.51
2022-11-30T02:24:24.884Z,21.74
2022-11-30T02:25:27.968Z,17.65
2022-11-30T02:26:31.052Z,19.77
2022-11-30T02:27:34.319Z,16.55
2022-11-30T02:28:37.027Z,19.42
2022-11-30T02:29:40.805Z,23.71
2022-11-30T02:30:44.048Z,19.36
2022-11-30T02:31:47.772Z,20.12
2022-11-30T02:32:50.750Z,30.21
2022-11-30T02:33:54.224Z,19.15
2022-11-30T02:34:57.509Z,16.41
2022-11-30T02:36:00.696Z,15.70
2022-11-30T02:37:03.676Z,17.05
2022-11-30T02:38:07.072Z,17.97
2022-11-30T02:39:10.258Z,16.68
2022-11-30T02:40:13.831Z,16.99
2022-11-30T02:41:17.441Z,19.19
2022-11-30T02:42:20.851Z,18.79
2022-11-30T02:43:24.003Z,19.10
2022-11-30T02:44:27.171Z,17.54
2022-11-30T02:45:30.265Z,18.86
2022-11-30T02:46:33.973Z,18.35
2022-11-30T02:47:37.334Z,18.41
2022-11-30T02:48:40.614Z,18.18
2022-11-30T02:49:43.905Z,17.90
2022-11-30T02:50:47.023Z,16.71
2022-11-30T02:51:50.781Z,16.61
2022-11-30T02:52:54.055Z,18.12
2022-11-30T02:53:57.268Z,18.94
2022-11-30T02:55:00.634Z,20.68
2022-11-30T02:56:04.843Z,16.87
2022-11-30T02:57:07.807Z,17.91
2022-11-30T02:58:11.122Z,19.15
2022-11-30T02:59:14.389Z,17.24
2022-11-30T03:00:18.610Z,20.18
2022-11-30T03:01:22.158Z,19.66
2022-11-30T03:02:25.568Z,18.99
2022-11-30T03:03:28.578Z,17.69
2022-11-30T03:04:31.622Z,18.63
2022-11-30T03:05:34.593Z,15.62
2022-11-30T03:06:38.392Z,17.38
2022-11-30T03:07:41.527Z,18.43
2022-11-30T03:08:44.561Z,19.61
2022-11-30T03:09:47.536Z,16.82
2022-11-30T03:10:50.512Z,17.45
2022-11-30T03:11:54.101Z,15.83
2022-11-30T03:12:57.276Z,19.39
2022-11-30T03:14:00.683Z,20.01
2022-11-30T03:15:03.863Z,20.88
2022-11-30T03:16:07.106Z,18.99
2022-11-30T03:17:10.011Z,19.55
2022-11-30T03:18:12.784Z,17.75
2022-11-30T03:19:15.759Z,18.04
2022-11-30T03:20:18.850Z,21.38
2022-11-30T03:21:21.827Z,15.65
2022-11-30T03:22:24.923Z,16.38
2022-11-30T03:23:28.394Z,18.84
2022-11-30T03:24:31.257Z,20.90
2022-11-30T03:25:35.464Z,18.34
2022-11-30T03:26:38.377Z,19.76
2022-11-30T03:27:42.145Z,20.68
2022-11-30T03:28:45.535Z,18.66
2022-11-30T03:29:48.926Z,20.24
2022-11-30T03:30:52.142Z,20.18
2022-11-30T03:31:55.491Z,23.55
2022-11-30T03:32:59.903Z,20.53
2022-11-30T03:34:03.013Z,18.53
2022-11-30T03:35:05.863Z,17.44
2022-11-30T03:36:09.446Z,18.42
2022-11-30T03:37:12.429Z,17.26
2022-11-30T03:38:15.900Z,15.59
2022-11-30T03:39:19.392Z,14.82
2022-11-30T03:40:22.417Z,17.17
2022-11-30T03:41:32.420Z,16.46
2022-11-30T03:42:37.741Z,18.41
2022-11-30T03:43:41.041Z,17.54
2022-11-30T03:44:44.387Z,17.66
2022-11-30T03:45:47.804Z,14.81
2022-11-30T03:46:54.145Z,15.38
2022-11-30T03:47:57.446Z,14.56
2022-11-30T03:49:01.662Z,17.62
2022-11-30T03:50:05.131Z,17.94
2022-11-30T03:51:08.538Z,18.56
2022-11-30T03:52:12.628Z,17.65
2022-11-30T03:53:15.504Z,17.03
2022-11-30T03:54:18.787Z,17.49
2022-11-30T03:55:22.275Z,17.88
2022-11-30T03:56:25.427Z,15.09
2022-11-30T03:57:28.329Z,16.39
2022-11-30T03:58:31.159Z,15.65
2022-11-30T03:59:34.295Z,15.88
2022-11-30T04:00:37.965Z,17.01
2022-11-30T04:01:41.386Z,14.70
2022-11-30T04:02:45.168Z,15.51
2022-11-30T04:03:48.103Z,16.48
2022-11-30T04:04:51.416Z,15.85
2022-11-30T04:05:54.727Z,17.29
2022-11-30T04:06:58.095Z,16.44
2022-11-30T04:08:01.413Z,14.62
2022-11-30T04:09:04.558Z,14.56
2022-11-30T04:10:08.824Z,13.82
2022-11-30T04:11:12.047Z,14.95
2022-11-30T04:12:15.667Z,15.90
2022-11-30T04:13:18.624Z,16.56
2022-11-30T04:14:21.843Z,18.79
2022-11-30T04:15:24.773Z,17.81
2022-11-30T04:16:28.513Z,17.26
2022-11-30T04:17:31.954Z,16.85
2022-11-30T04:18:34.948Z,15.59
2022-11-30T04:19:38.958Z,16.18
2022-11-30T04:20:42.114Z,15.20
2022-11-30T04:21:45.612Z,13.98
2022-11-30T04:22:49.216Z,14.31
2022-11-30T04:23:52.087Z,14.21
2022-11-30T04:24:55.358Z,14.13
2022-11-30T04:25:59.571Z,16.66
2022-11-30T04:27:02.757Z,15.66
2022-11-30T04:28:06.146Z,14.66
2022-11-30T04:29:09.546Z,12.76
2022-11-30T04:30:12.401Z,15.71
2022-11-30T04:31:16.022Z,16.66
2022-11-30T04:32:19.995Z,12.31
2022-11-30T04:33:23.477Z,12.66
2022-11-30T04:34:26.764Z,14.41
2022-11-30T04:35:30.577Z,14.88
2022-11-30T04:36:34.138Z,16.38
2022-11-30T04:37:37.142Z,15.24
2022-11-30T04:38:42.137Z,15.65
2022-11-30T04:39:45.649Z,15.14
2022-11-30T04:40:48.718Z,14.67
2022-11-30T04:41:51.996Z,16.24
2022-11-30T04:42:55.591Z,15.98
2022-11-30T04:43:59.103Z,14.61
2022-11-30T04:45:02.266Z,15.32
2022-11-30T04:46:05.972Z,14.06
2022-11-30T04:47:09.680Z,15.85
2022-11-30T04:48:13.457Z,12.89
2022-11-30T04:49:16.745Z,15.71
2022-11-30T04:50:19.723Z,16.88
2022-11-30T04:51:23.498Z,15.45
2022-11-30T04:52:27.192Z,12.94
2022-11-30T04:53:30.586Z,18.01
2022-11-30T04:54:33.771Z,20.41
2022-11-30T04:55:36.841Z,16.35
2022-11-30T04:56:40.051Z,14.32
2022-11-30T04:57:43.727Z,15.89
2022-11-30T04:58:47.939Z,11.21
2022-11-30T04:59:50.909Z,16.16
2022-11-30T05:00:59.940Z,18.14
2022-11-30T05:02:03.035Z,15.48
2022-11-30T05:03:05.995Z,13.76
2022-11-30T05:04:12.223Z,16.13
2022-11-30T05:05:15.027Z,15.33
2022-11-30T05:06:18.190Z,14.07
2022-11-30T05:07:21.656Z,13.48
2022-11-30T05:08:25.683Z,15.31
2022-11-30T05:09:28.961Z,14.83
2022-11-30T05:10:31.738Z,14.87
2022-11-30T05:11:35.244Z,14.52
2022-11-30T05:12:38.404Z,15.94
2022-11-30T05:13:42.436Z,16.72
2022-11-30T05:14:46.109Z,15.37
2022-11-30T05:15:49.790Z,15.61
2022-11-30T05:16:55.952Z,15.56
2022-11-30T05:17:59.427Z,14.08
2022-11-30T05:19:03.138Z,16.49
2022-11-30T05:20:06.306Z,17.45
2022-11-30T05:21:09.418Z,17.65
2022-11-30T05:22:12.393Z,17.14
2022-11-30T05:23:18.135Z,17.06
2022-11-30T05:24:21.818Z,17.37
2022-11-30T05:25:25.194Z,15.50
2022-11-30T05:26:28.501Z,17.01
2022-11-30T05:27:31.442Z,18.37
2022-11-30T05:28:34.529Z,18.89
2022-11-30T05:29:38.030Z,15.66
2022-11-30T05:30:43.985Z,14.67
2022-11-30T05:31:55.855Z,14.06
2022-11-30T05:32:59.025Z,17.27
2022-11-30T05:34:02.716Z,19.49
2022-11-30T05:35:07.188Z,18.29
2022-11-30T05:36:22.608Z,14.68
2022-11-30T05:37:27.215Z,15.96
2022-11-30T05:38:30.300Z,14.69
2022-11-30T05:39:35.840Z,15.74
2022-11-30T05:40:43.657Z,16.49
2022-11-30T05:41:55.724Z,16.56
2022-11-30T05:44:21.584Z,17.65
2022-11-30T05:45:29.068Z,17.09
2022-11-30T05:46:32.090Z,18.78
2022-11-30T05:47:35.797Z,19.18
2022-11-30T05:48:38.669Z,18.79
2022-11-30T05:49:43.613Z,17.92
2022-11-30T05:50:58.503Z,20.12
2022-11-30T05:52:08.295Z,19.66
2022-11-30T05:53:18.129Z,22.36
2022-11-30T05:54:25.522Z,21.88
2022-11-30T05:55:42.465Z,22.58
2022-11-30T05:56:51.608Z,18.83
2022-11-30T06:00:35.037Z,15.23
2022-11-30T06:01:41.364Z,16.63
2022-11-30T06:02:47.366Z,17.35
2022-11-30T06:03:50.569Z,18.41
2022-11-30T06:04:53.628Z,21.32
2022-11-30T06:05:57.022Z,19.67
2022-11-30T06:07:08.697Z,21.11
2022-11-30T06:08:12.189Z,19.80
2022-11-30T06:09:15.704Z,17.21
2022-11-30T06:10:19.828Z,19.33
2022-11-30T06:11:24.816Z,18.94
2022-11-30T06:12:27.898Z,19.17
2022-11-30T06:13:35.580Z,19.48
2022-11-30T06:14:38.860Z,18.36
2022-11-30T06:15:42.554Z,23.25
2022-11-30T06:16:45.895Z,20.98
2022-11-30T06:17:49.033Z,18.08
2022-11-30T06:18:52.548Z,21.48
2022-11-30T06:20:01.641Z,21.28
2022-11-30T06:21:07.600Z,19.79
2022-11-30T06:22:17.435Z,19.48
2022-11-30T06:24:41.405Z,19.59
2022-11-30T06:27:06.007Z,18.51
2022-11-30T06:28:09.170Z,18.64
2022-11-30T06:29:15.956Z,20.14
2022-11-30T06:30:20.175Z,20.31
2022-11-30T06:31:29.139Z,16.57
2022-11-30T06:32:32.558Z,17.61
2022-11-30T06:33:36.029Z,17.18
2022-11-30T06:34:56.446Z,14.62
2022-11-30T06:36:02.786Z,18.63
2022-11-30T06:37:06.099Z,21.09
2022-11-30T06:38:09.337Z,20.47
2022-11-30T06:39:12.431Z,17.54
2022-11-30T06:40:15.706Z,17.22
2022-11-30T06:41:18.674Z,20.12
2022-11-30T06:43:50.253Z,18.72
2022-11-30T06:44:53.520Z,19.42
2022-11-30T06:47:21.935Z,20.54
2022-11-30T06:48:29.490Z,19.51
2022-11-30T06:49:32.770Z,19.10
2022-11-30T06:50:46.876Z,17.89
2022-11-30T06:51:46.737Z,18.55
2022-11-30T06:52:55.586Z,17.99
2022-11-30T06:53:59.533Z,18.92
2022-11-30T06:56:30.460Z,19.94
2022-11-30T06:57:37.138Z,19.27
2022-11-30T06:58:44.307Z,18.06
2022-11-30T06:59:47.586Z,19.72
2022-11-30T07:00:53.079Z,19.15
2022-11-30T07:01:57.035Z,18.36
2022-11-30T07:03:00.714Z,17.46
2022-11-30T07:04:06.203Z,15.05
2022-11-30T07:05:09.339Z,16.81
2022-11-30T07:06:22.673Z,16.77
2022-11-30T07:07:27.506Z,17.45
2022-11-30T07:08:35.788Z,19.16
2022-11-30T07:09:41.644Z,16.80
2022-11-30T07:10:44.640Z,16.46
2022-11-30T07:11:51.010Z,16.64
2022-11-30T07:12:54.162Z,18.03
2022-11-30T07:13:57.206Z,19.35
2022-11-30T07:15:00.932Z,18.20
2022-11-30T07:16:04.097Z,17.24
2022-11-30T07:17:09.927Z,16.81
2022-11-30T07:18:13.745Z,16.35
2022-11-30T07:19:26.142Z,17.01
2022-11-30T07:20:29.027Z,17.50
2022-11-30T07:21:35.773Z,17.87
2022-11-30T07:22:41.627Z,17.51
2022-11-30T07:23:56.902Z,17.00
2022-11-30T07:27:49.592Z,17.68
2022-11-30T07:28:58.993Z,19.20
2022-11-30T07:30:04.403Z,18.13
2022-11-30T07:31:14.815Z,20.65
2022-11-30T07:32:29.998Z,19.29
2022-11-30T07:33:36.828Z,17.60
2022-11-30T07:34:50.976Z,18.52
2022-11-30T07:35:53.820Z,20.70
2022-11-30T07:41:00.171Z,19.57
2022-11-30T07:42:05.622Z,18.74
2022-11-30T07:43:08.851Z,22.37
2022-11-30T07:44:22.826Z,20.63
2022-11-30T07:48:16.776Z,20.33
2022-11-30T07:54:53.011Z,21.31
2022-11-30T07:55:59.470Z,22.78
2022-11-30T07:59:42.817Z,23.78
2022-11-30T08:02:13.163Z,20.73
2022-11-30T08:08:39.728Z,22.90
2022-11-30T08:13:49.287Z,21.88
2022-11-30T08:16:22.189Z,23.81
2022-11-30T08:17:41.396Z,23.14
2022-11-30T08:18:52.005Z,22.35
2022-11-30T08:26:40.044Z,17.79
2022-11-30T08:29:18.269Z,23.87
2022-11-30T08:33:02.910Z,20.75
2022-11-30T08:34:13.467Z,21.73
2022-11-30T08:35:17.984Z,19.03
2022-11-30T08:37:46.396Z,23.87
2022-11-30T08:38:50.264Z,21.42
2022-11-30T08:41:23.167Z,19.97
2022-11-30T08:42:36.506Z,18.83
2022-11-30T08:43:39.470Z,19.74
2022-11-30T08:44:46.318Z,20.35
2022-11-30T08:46:11.422Z,19.03
2022-11-30T08:47:09.747Z,19.43
2022-11-30T08:51:08.996Z,24.90
2022-11-30T08:53:31.342Z,18.65
2022-11-30T08:56:07.930Z,19.66
2022-11-30T08:57:13.779Z,22.98
2022-11-30T08:58:23.816Z,24.96
2022-11-30T08:59:28.042Z,21.65
2022-11-30T09:03:05.977Z,22.79
2022-11-30T09:04:12.155Z,24.39
2022-11-30T09:05:25.696Z,24.24
2022-11-30T09:06:29.475Z,19.88
2022-11-30T09:07:39.478Z,20.37
2022-11-30T09:08:59.499Z,20.50
2022-11-30T09:11:23.172Z,19.00
2022-11-30T09:12:33.917Z,24.28
2022-11-30T09:13:37.212Z,22.33
2022-11-30T09:14:42.143Z,23.69
2022-11-30T09:15:45.548Z,21.91
2022-11-30T09:16:50.249Z,17.69
2022-11-30T09:17:55.057Z,20.67
2022-11-30T09:19:01.206Z,24.33
2022-11-30T09:20:08.764Z,27.56
2022-11-30T09:21:16.698Z,22.14
2022-11-30T09:22:20.175Z,19.73
2022-11-30T09:23:23.963Z,18.72
2022-11-30T09:24:27.052Z,17.23
2022-11-30T09:25:31.255Z,20.62
2022-11-30T09:26:44.887Z,23.08
2022-11-30T09:29:11.350Z,24.55
2022-11-30T09:30:14.509Z,23.62
2022-11-30T09:32:49.305Z,19.59
2022-11-30T09:33:55.481Z,20.52
2022-11-30T09:34:58.487Z,21.47
2022-11-30T09:36:10.659Z,20.92
2022-11-30T09:37:13.776Z,19.94
2022-11-30T09:38:23.358Z,25.71
2022-11-30T09:39:28.810Z,23.66
2022-11-30T09:40:35.514Z,25.66
2022-11-30T09:41:36.813Z,20.85
2022-11-30T09:42:42.270Z,18.86
2022-11-30T09:43:45.530Z,21.54
2022-11-30T09:44:49.153Z,21.08
2022-11-30T09:45:53.981Z,19.59
2022-11-30T09:48:17.510Z,20.89
2022-11-30T09:49:28.460Z,22.90
2022-11-30T09:50:35.544Z,23.48
2022-11-30T09:51:52.746Z,25.38
2022-11-30T09:52:56.562Z,23.75
2022-11-30T09:53:59.859Z,23.50
2022-11-30T09:55:14.481Z,22.86
2022-11-30T09:56:22.684Z,22.76
2022-11-30T09:58:48.093Z,24.29
2022-11-30T09:59:54.182Z,22.14
2022-11-30T10:01:08.917Z,20.60
2022-11-30T10:06:04.738Z,20.90
2022-11-30T10:07:12.824Z,22.47
2022-11-30T10:10:57.613Z,26.33
2022-11-30T10:14:49.857Z,21.20
2022-11-30T10:15:53.303Z,24.14
2022-11-30T10:16:58.695Z,23.76
2022-11-30T10:18:05.230Z,25.78
2022-11-30T10:19:19.066Z,25.48
2022-11-30T10:20:25.145Z,25.52
2022-11-30T10:22:53.795Z,22.65
2022-11-30T10:23:56.999Z,22.81
2022-11-30T10:26:20.338Z,25.39
2022-11-30T10:27:25.274Z,23.70
2022-11-30T10:28:48.011Z,22.90
2022-11-30T10:29:56.597Z,21.64
2022-11-30T10:32:20.172Z,22.72
2022-11-30T10:36:06.930Z,23.51
2022-11-30T10:37:16.425Z,21.47
2022-11-30T10:38:33.058Z,19.94
2022-11-30T10:39:37.432Z,19.20
2022-11-30T10:40:46.259Z,21.85
2022-11-30T10:41:58.603Z,24.51
2022-11-30T10:43:01.760Z,23.89
2022-11-30T10:44:06.689Z,23.51
2022-11-30T10:45:10.061Z,19.74
2022-11-30T10:46:17.422Z,22.48
2022-11-30T10:47:32.829Z,22.36
2022-11-30T10:48:36.065Z,20.70
2022-11-30T10:49:41.324Z,22.57
2022-11-30T10:50:49.913Z,22.79
2022-11-30T10:51:55.029Z,23.71
2022-11-30T10:53:00.670Z,24.00
2022-11-30T10:54:04.078Z,24.30
2022-11-30T10:55:07.346Z,20.29
2022-11-30T10:56:10.855Z,20.55
2022-11-30T10:57:14.221Z,23.09
2022-11-30T10:59:41.064Z,25.00
2022-11-30T11:00:45.790Z,21.89
2022-11-30T11:01:55.671Z,20.20
2022-11-30T11:03:05.491Z,18.94
2022-11-30T11:04:08.455Z,19.66
2022-11-30T11:05:11.518Z,23.37
2022-11-30T11:06:15.221Z,22.46
2022-11-30T11:08:42.381Z,23.43
2022-11-30T11:09:50.741Z,23.83
2022-11-30T11:10:53.951Z,24.90
2022-11-30T11:11:57.030Z,24.17
2022-11-30T11:13:01.438Z,30.04
2022-11-30T11:14:13.635Z,22.79
2022-11-30T11:15:16.716Z,23.06
2022-11-30T11:16:19.924Z,22.68
2022-11-30T11:17:23.376Z,20.08
2022-11-30T11:18:26.664Z,21.95
2022-11-30T11:19:30.459Z,23.29
2022-11-30T11:21:58.839Z,23.19
2022-11-30T11:23:01.919Z,21.17
2022-11-30T11:24:04.798Z,21.68
2022-11-30T11:25:17.124Z,21.08
2022-11-30T11:26:21.816Z,21.54
2022-11-30T11:27:32.915Z,21.65
2022-11-30T11:31:22.897Z,22.74
2022-11-30T11:32:28.192Z,18.01
2022-11-30T11:33:31.787Z,21.73
2022-11-30T11:34:39.566Z,23.88
2022-11-30T11:35:47.369Z,20.72
2022-11-30T11:36:54.032Z,21.61
2022-11-30T11:38:00.086Z,24.81
2022-11-30T11:39:11.655Z,21.68
2022-11-30T11:40:15.241Z,20.87
2022-11-30T11:41:18.637Z,20.36
2022-11-30T11:42:25.936Z,21.32
2022-11-30T11:44:50.133Z,22.75
2022-11-30T11:46:07.257Z,20.39
2022-11-30T11:48:31.193Z,24.17
2022-11-30T11:49:34.895Z,22.24
2022-11-30T11:51:54.248Z,21.03
2022-11-30T11:52:57.835Z,21.18
2022-11-30T11:54:01.172Z,18.02
2022-11-30T11:55:09.433Z,20.43
2022-11-30T11:56:13.120Z,22.32
2022-11-30T11:57:25.727Z,21.74
2022-11-30T11:59:49.766Z,20.58
2022-11-30T12:01:38.804Z,22.30
2022-11-30T12:02:14.995Z,18.93
2022-11-30T12:03:21.058Z,17.34
2022-11-30T12:04:24.774Z,17.77
2022-11-30T12:06:50.153Z,20.83
2022-11-30T12:07:56.747Z,20.61
2022-11-30T12:08:59.687Z,20.44
2022-11-30T12:10:03.328Z,21.07
2022-11-30T12:11:06.566Z,22.06
2022-11-30T12:12:10.584Z,21.43
2022-11-30T12:13:13.853Z,19.00
2022-11-30T12:14:17.250Z,22.74
2022-11-30T12:15:20.534Z,22.52
2022-11-30T12:16:24.636Z,24.23
2022-11-30T12:17:30.880Z,20.62
2022-11-30T12:18:39.706Z,19.26
2022-11-30T12:19:42.776Z,17.45
2022-11-30T12:20:46.376Z,19.89
2022-11-30T12:21:49.156Z,20.27
2022-11-30T12:22:51.909Z,19.15
2022-11-30T12:23:56.937Z,20.97
2022-11-30T12:25:05.506Z,19.54
2022-11-30T12:26:09.560Z,18.38
2022-11-30T12:27:12.830Z,18.10
2022-11-30T12:28:20.969Z,18.16
2022-11-30T12:30:35.276Z,16.78
2022-11-30T12:31:38.222Z,19.13
2022-11-30T12:32:41.222Z,19.27
2022-11-30T12:34:02.388Z,20.74
2022-11-30T12:35:07.468Z,20.76
2022-11-30T12:36:10.434Z,19.04
2022-11-30T12:37:16.503Z,20.50
2022-11-30T12:38:19.779Z,19.64
2022-11-30T12:39:23.382Z,20.73
2022-11-30T12:40:26.233Z,17.15
2022-11-30T12:41:34.015Z,15.99
2022-11-30T12:42:39.464Z,17.85
2022-11-30T12:43:42.643Z,20.66
2022-11-30T12:44:45.941Z,20.47
2022-11-30T12:45:49.550Z,18.42
2022-11-30T12:46:55.221Z,18.88
2022-11-30T12:47:58.244Z,18.56
2022-11-30T12:49:01.376Z,17.68
2022-11-30T12:50:05.032Z,18.88
2022-11-30T12:51:10.251Z,21.09
2022-11-30T12:52:13.744Z,23.98
2022-11-30T12:53:16.824Z,21.81
2022-11-30T12:54:20.208Z,19.84
2022-11-30T12:55:23.582Z,17.47
2022-11-30T12:56:26.764Z,20.53
2022-11-30T12:57:29.949Z,20.35
2022-11-30T12:58:33.052Z,19.72
2022-11-30T12:59:36.617Z,18.68
2022-11-30T13:00:39.894Z,21.91
2022-11-30T13:01:42.772Z,22.56
2022-11-30T13:02:45.874Z,24.23
2022-11-30T13:03:49.054Z,21.50
2022-11-30T13:04:58.083Z,22.86
2022-11-30T13:05:56.953Z,18.74
2022-11-30T13:07:00.532Z,19.77
2022-11-30T13:08:03.578Z,18.11
2022-11-30T13:09:06.997Z,19.78
2022-11-30T13:10:09.975Z,18.47
2022-11-30T13:11:13.356Z,18.49
2022-11-30T13:12:16.238Z,21.33
2022-11-30T13:13:19.820Z,22.78
2022-11-30T13:14:22.904Z,22.74
2022-11-30T13:15:26.200Z,20.42
2022-11-30T13:16:29.406Z,16.75
2022-11-30T13:17:43.889Z,17.38
2022-11-30T13:18:46.996Z,21.32
2022-11-30T13:19:49.978Z,20.73
2022-11-30T13:20:53.782Z,22.22
2022-11-30T13:22:00.954Z,21.70
2022-11-30T13:23:04.542Z,20.76
2022-11-30T13:24:08.132Z,18.21
2022-11-30T13:25:34.036Z,19.87
2022-11-30T13:27:44.982Z,21.99
2022-11-30T13:28:49.420Z,21.92
2022-11-30T13:29:57.938Z,20.64
2022-11-30T13:31:00.972Z,21.94
2022-11-30T13:32:03.999Z,20.81
2022-11-30T13:33:06.881Z,20.35
2022-11-30T13:34:09.859Z,19.92
2022-11-30T13:35:12.826Z,19.35
2022-11-30T13:36:17.960Z,22.65
2022-11-30T13:37:25.822Z,21.53
2022-11-30T13:38:40.801Z,19.19
2022-11-30T13:39:41.267Z,22.60
2022-11-30T13:40:43.996Z,20.04
2022-11-30T13:41:46.765Z,17.42
2022-11-30T13:42:51.965Z,17.41
2022-11-30T13:43:54.451Z,22.06
2022-11-30T13:44:57.851Z,19.22
2022-11-30T13:46:00.648Z,19.44
2022-11-30T13:47:03.455Z,20.38
2022-11-30T13:48:08.409Z,20.80
2022-11-30T13:49:11.186Z,21.57
2022-11-30T13:50:14.159Z,21.21
2022-11-30T13:51:17.446Z,22.93
2022-11-30T13:52:23.524Z,23.92
2022-11-30T13:53:33.876Z,24.69
2022-11-30T13:54:37.034Z,20.83
2022-11-30T13:55:39.695Z,20.05
2022-11-30T13:56:48.699Z,20.04
2022-11-30T13:57:49.454Z,23.31
2022-11-30T13:58:52.422Z,21.72
2022-11-30T13:59:56.928Z,20.55
2022-11-30T14:00:59.966Z,18.13
2022-11-30T14:02:03.123Z,18.23
2022-11-30T14:03:06.063Z,19.56
2022-11-30T14:04:09.041Z,17.32
2022-11-30T14:05:12.321Z,19.08
2022-11-30T14:06:15.497Z,20.74
2022-11-30T14:07:22.286Z,20.52
2022-11-30T14:08:28.840Z,21.13
2022-11-30T14:09:31.906Z,22.44
2022-11-30T14:10:35.211Z,21.67
2022-11-30T14:11:38.785Z,23.28
2022-11-30T14:12:41.660Z,20.39
2022-11-30T14:13:45.049Z,23.03
2022-11-30T14:14:48.150Z,21.11
2022-11-30T14:15:51.458Z,22.04
2022-11-30T14:16:54.590Z,18.19
2022-11-30T14:17:58.399Z,22.41
2022-11-30T14:19:01.783Z,19.85
2022-11-30T14:21:37.612Z,23.99
2022-11-30T14:23:56.693Z,22.52
2022-11-30T14:24:59.778Z,22.92
2022-11-30T14:27:10.866Z,23.27
2022-11-30T14:28:25.596Z,21.21
2022-11-30T14:29:28.776Z,22.33
2022-11-30T14:30:32.882Z,24.54
2022-11-30T14:31:38.603Z,19.14
2022-11-30T14:32:41.503Z,22.62
2022-11-30T14:33:44.592Z,22.22
2022-11-30T14:34:50.249Z,20.40
2022-11-30T14:35:53.814Z,21.93
2022-11-30T14:36:56.590Z,21.79
2022-11-30T14:37:59.151Z,16.67
2022-11-30T14:39:02.231Z,17.74
2022-11-30T14:40:05.824Z,20.24
2022-11-30T14:41:09.015Z,18.07
2022-11-30T14:42:12.497Z,17.02
2022-11-30T14:44:35.856Z,20.34
2022-11-30T14:45:38.626Z,18.95
2022-11-30T14:46:41.684Z,17.75
2022-11-30T14:47:48.108Z,18.68
2022-11-30T14:48:49.096Z,22.10
2022-11-30T14:49:52.375Z,18.36
2022-11-30T14:50:56.082Z,18.65
2022-11-30T14:52:02.134Z,19.08
2022-11-30T14:53:05.514Z,19.96
2022-11-30T14:54:09.210Z,22.89
2022-11-30T14:55:12.696Z,25.72
2022-11-30T14:56:16.081Z,20.95
2022-11-30T14:57:19.669Z,19.50
2022-11-30T14:58:27.367Z,19.54
2022-11-30T14:59:30.742Z,20.19
2022-11-30T15:00:39.357Z,20.35
2022-11-30T15:01:43.224Z,20.44
2022-11-30T15:02:46.044Z,21.68
2022-11-30T15:03:55.030Z,18.14
2022-11-30T15:05:01.301Z,17.74
2022-11-30T15:06:05.612Z,23.29
2022-11-30T15:07:10.734Z,20.89
2022-11-30T15:08:13.703Z,17.80
2022-11-30T15:09:16.890Z,18.75
2022-11-30T15:10:23.906Z,19.66
2022-11-30T15:11:24.994Z,20.92
2022-11-30T15:12:27.970Z,21.63
2022-11-30T15:13:31.979Z,22.75
2022-11-30T15:14:35.254Z,21.74
2022-11-30T15:15:41.753Z,19.41
2022-11-30T15:16:42.392Z,19.96
2022-11-30T15:17:45.642Z,19.45
2022-11-30T15:18:48.698Z,18.34
2022-11-30T15:19:51.704Z,21.75
2022-11-30T15:20:56.504Z,20.51
2022-11-30T15:21:59.478Z,20.07
2022-11-30T15:23:02.863Z,19.94
2022-11-30T15:24:06.316Z,21.55
2022-11-30T15:25:09.433Z,21.41
2022-11-30T15:26:12.557Z,22.55
2022-11-30T15:27:15.699Z,19.60
2022-11-30T15:28:18.783Z,20.60
2022-11-30T15:29:22.064Z,20.05
2022-11-30T15:30:24.925Z,24.72
2022-11-30T15:31:28.298Z,21.45
2022-11-30T15:32:31.189Z,20.67
2022-11-30T15:33:34.376Z,23.05
2022-11-30T15:34:37.566Z,19.76
2022-11-30T15:36:12.163Z,19.24
2022-11-30T15:38:00.820Z,22.09
2022-11-30T15:39:04.014Z,24.68
2022-11-30T15:40:06.887Z,22.23